createdAt,value
2018-09-05T00:02:23.047Z,99.90
2018-09-05T00:04:51.335Z,99.90
2018-09-05T00:07:19.657Z,99.90
2018-09-05T00:09:47.984Z,99.90
2018-09-05T00:12:16.312Z,99.90
2018-09-05T00:14:44.632Z,99.90
2018-09-05T00:17:12.933Z,99.90
2018-09-05T00:19:41.232Z,99.90
2018-09-05T00:22:09.545Z,99.90
2018-09-05T00:24:37.872Z,99.90
2018-09-05T00:27:06.211Z,99.90
2018-09-05T00:29:34.537Z,99.90
2018-09-05T00:32:02.832Z,99.90
2018-09-05T00:34:31.140Z,99.90
2018-09-05T00:36:59.443Z,99.90
2018-09-05T00:39:27.758Z,99.90
2018-09-05T00:41:56.083Z,99.90
2018-09-05T00:44:24.382Z,99.90
2018-09-05T00:46:52.696Z,99.90
2018-09-05T00:49:20.999Z,99.90
2018-09-05T00:51:49.305Z,99.90
2018-09-05T00:54:17.603Z,99.90
2018-09-05T00:56:45.915Z,99.90
2018-09-05T00:59:14.278Z,99.80
2018-09-05T01:01:42.575Z,99.70
2018-09-05T01:04:10.895Z,99.60
2018-09-05T01:06:39.236Z,99.60
2018-09-05T01:09:08.313Z,99.50
2018-09-05T01:11:36.923Z,99.40
2018-09-05T01:14:05.499Z,99.40
2018-09-05T01:16:33.808Z,99.40
2018-09-05T01:19:02.195Z,99.40
2018-09-05T01:21:30.623Z,99.40
2018-09-05T01:23:58.942Z,99.40
2018-09-05T01:26:27.252Z,99.30
2018-09-05T01:28:55.554Z,99.70
2018-09-05T01:31:23.850Z,99.50
2018-09-05T01:33:52.151Z,99.30
2018-09-05T01:36:20.452Z,99.50
2018-09-05T01:38:48.768Z,99.60
2018-09-05T01:41:17.152Z,99.80
2018-09-05T01:43:45.449Z,99.80
2018-09-05T01:46:13.775Z,99.80
2018-09-05T01:48:42.091Z,99.80
2018-09-05T01:51:10.494Z,99.70
2018-09-05T01:53:38.823Z,99.60
2018-09-05T01:56:07.106Z,99.60
2018-09-05T01:58:35.432Z,99.50
2018-09-05T02:01:03.795Z,99.40
2018-09-05T02:03:32.489Z,99.30
2018-09-05T02:06:00.804Z,99.30
2018-09-05T02:08:29.142Z,99.40
2018-09-05T02:10:57.442Z,99.40
2018-09-05T02:13:25.763Z,99.50
2018-09-05T02:15:54.127Z,99.60
2018-09-05T02:18:22.422Z,99.60
2018-09-05T02:20:50.748Z,99.70
2018-09-05T02:23:19.055Z,99.70
2018-09-05T02:25:47.372Z,99.90
2018-09-05T02:28:15.665Z,99.80
2018-09-05T02:30:43.963Z,99.90
2018-09-05T02:33:12.319Z,99.80
2018-09-05T02:35:40.631Z,99.50
2018-09-05T02:38:08.928Z,99.40
2018-09-05T02:40:37.300Z,99.40
2018-09-05T02:43:05.593Z,99.50
2018-09-05T02:45:33.882Z,99.60
2018-09-05T02:48:02.236Z,99.60
2018-09-05T02:50:30.528Z,99.70
2018-09-05T02:55:32.240Z,99.70
2018-09-05T02:58:00.552Z,99.70
2018-09-05T03:00:28.840Z,99.60
2018-09-05T03:02:57.175Z,99.50
2018-09-05T03:05:25.473Z,99.30
2018-09-05T03:07:53.795Z,99.30
2018-09-05T03:10:22.107Z,99.40
2018-09-05T03:12:50.420Z,99.70
2018-09-05T03:15:18.723Z,99.90
2018-09-05T03:17:47.063Z,99.90
2018-09-05T03:20:15.368Z,99.90
2018-09-05T03:22:43.741Z,99.90
2018-09-05T03:25:12.137Z,99.90
2018-09-05T03:27:40.740Z,99.80
2018-09-05T03:30:09.071Z,99.90
2018-09-05T03:32:37.422Z,99.80
2018-09-05T03:35:06.704Z,99.90
2018-09-05T03:37:35.178Z,99.90
2018-09-05T03:40:03.548Z,99.90
2018-09-05T03:42:31.847Z,99.60
2018-09-05T03:45:00.167Z,99.60
2018-09-05T03:47:28.678Z,99.60
2018-09-05T03:49:56.995Z,99.50
2018-09-05T03:52:25.333Z,99.30
2018-09-05T03:54:53.667Z,99.50
2018-09-05T03:57:22.004Z,99.50
2018-09-05T03:59:50.319Z,99.70
2018-09-05T04:02:18.656Z,99.80
2018-09-05T04:04:47.003Z,99.90
2018-09-05T04:07:15.314Z,99.90
2018-09-05T04:09:43.632Z,99.90
2018-09-05T04:12:12.005Z,99.90
2018-09-05T04:14:40.267Z,99.90
2018-09-05T04:17:08.641Z,99.90
2018-09-05T04:19:36.940Z,99.90
2018-09-05T04:22:05.246Z,99.80
2018-09-05T04:24:33.543Z,99.80
2018-09-05T04:27:01.842Z,99.80
2018-09-05T04:29:30.236Z,99.70
2018-09-05T04:31:58.492Z,99.70
2018-09-05T04:34:26.807Z,99.60
2018-09-05T04:36:55.107Z,99.60
2018-09-05T04:39:23.421Z,99.70
2018-09-05T04:41:52.048Z,99.50
2018-09-05T04:44:20.449Z,99.50
2018-09-05T04:46:48.774Z,99.50
2018-09-05T04:49:17.100Z,99.40
2018-09-05T04:51:45.395Z,99.40
2018-09-05T04:54:13.725Z,99.40
2018-09-05T04:56:42.024Z,99.30
2018-09-05T04:59:10.316Z,99.30
2018-09-05T05:01:38.636Z,99.20
2018-09-05T05:04:06.940Z,99.20
2018-09-05T05:06:35.237Z,99.20
2018-09-05T05:09:04.799Z,99.10
2018-09-05T05:11:33.104Z,99.20
2018-09-05T05:14:01.397Z,99.40
2018-09-05T05:16:29.716Z,99.50
2018-09-05T05:18:58.025Z,99.50
2018-09-05T05:21:26.323Z,99.60
2018-09-05T05:23:54.656Z,99.90
2018-09-05T05:26:22.958Z,99.70
2018-09-05T05:28:51.291Z,99.70
2018-09-05T05:31:20.515Z,99.60
2018-09-05T05:33:48.875Z,99.50
2018-09-05T05:36:17.350Z,99.40
2018-09-05T05:38:46.775Z,99.30
2018-09-05T05:41:15.284Z,99.10
2018-09-05T05:43:43.617Z,98.90
2018-09-05T05:46:11.986Z,98.60
2018-09-05T05:48:40.444Z,98.70
2018-09-05T05:51:08.756Z,98.50
2018-09-05T05:53:37.115Z,98.10
2018-09-05T05:56:05.463Z,98.20
2018-09-05T05:58:33.772Z,98.30
2018-09-05T06:01:02.244Z,98.40
2018-09-05T06:03:30.431Z,98.50
2018-09-05T06:05:58.769Z,98.60
2018-09-05T06:08:27.043Z,98.90
2018-09-05T06:10:55.367Z,99.50
2018-09-05T06:13:23.859Z,99.90
2018-09-05T06:15:52.140Z,99.90
2018-09-05T06:18:20.437Z,99.90
2018-09-05T06:20:48.735Z,99.90
2018-09-05T06:23:17.032Z,99.90
2018-09-05T06:25:45.343Z,99.90
2018-09-05T06:28:13.640Z,99.90
2018-09-05T06:30:42.080Z,99.90
2018-09-05T06:33:10.291Z,99.90
2018-09-05T06:35:38.651Z,99.90
2018-09-05T06:38:06.936Z,99.90
2018-09-05T06:40:35.222Z,99.90
2018-09-05T06:43:03.579Z,99.90
2018-09-05T06:45:31.948Z,99.90
2018-09-05T06:48:00.164Z,99.90
2018-09-05T06:50:28.462Z,99.90
2018-09-05T06:52:56.779Z,99.90
2018-09-05T06:55:25.084Z,99.90
2018-09-05T06:57:53.404Z,99.90
2018-09-05T07:00:21.732Z,99.90
2018-09-05T07:02:50.054Z,99.90
2018-09-05T07:05:18.944Z,99.90
2018-09-05T07:07:47.261Z,99.90
2018-09-05T07:10:15.553Z,99.90
2018-09-05T07:12:44.094Z,99.90
2018-09-05T07:15:12.465Z,99.90
2018-09-05T07:17:40.904Z,99.90
2018-09-05T07:20:09.157Z,99.90
2018-09-05T07:22:37.476Z,99.90
2018-09-05T07:25:06.761Z,99.90
2018-09-05T07:27:35.056Z,99.90
2018-09-05T07:30:03.387Z,99.90
2018-09-05T07:32:31.772Z,99.90
2018-09-05T07:35:00.078Z,99.90
2018-09-05T07:37:28.396Z,99.90
2018-09-05T07:39:56.693Z,99.90
2018-09-05T07:42:25.053Z,99.90
2018-09-05T07:44:53.395Z,99.90
2018-09-05T07:47:21.700Z,99.90
2018-09-05T07:49:50.009Z,99.90
2018-09-05T07:52:18.388Z,99.90
2018-09-05T07:54:46.688Z,99.90
2018-09-05T07:57:15.065Z,99.90
2018-09-05T07:59:43.307Z,99.90
2018-09-05T08:02:11.651Z,99.90
2018-09-05T08:04:40.024Z,99.90
2018-09-05T08:07:08.590Z,99.90
2018-09-05T08:09:36.900Z,99.90
2018-09-05T08:12:05.418Z,99.90
2018-09-05T08:14:33.719Z,99.90
2018-09-05T08:17:02.034Z,99.90
2018-09-05T08:19:30.344Z,99.90
2018-09-05T08:21:58.666Z,99.90
2018-09-05T08:24:27.023Z,99.90
2018-09-05T08:26:55.339Z,99.90
2018-09-05T08:29:23.645Z,99.90
2018-09-05T08:31:51.949Z,99.90
2018-09-05T08:34:20.280Z,99.90
2018-09-05T08:36:48.899Z,99.90
2018-09-05T08:39:17.071Z,99.90
2018-09-05T08:41:45.462Z,99.90
2018-09-05T08:44:13.937Z,99.90
2018-09-05T08:46:42.030Z,99.90
2018-09-05T08:49:10.361Z,99.90
2018-09-05T08:51:38.672Z,99.90
2018-09-05T08:54:06.970Z,99.90
2018-09-05T08:56:35.327Z,99.90
2018-09-05T08:59:03.631Z,99.90
2018-09-05T09:01:31.944Z,99.90
2018-09-05T09:04:00.249Z,99.90
2018-09-05T09:06:28.548Z,99.90
2018-09-05T09:08:57.043Z,99.90
2018-09-05T09:11:25.343Z,99.90
2018-09-05T09:13:53.646Z,99.90
2018-09-05T09:16:21.957Z,99.90
2018-09-05T09:18:50.369Z,99.90
2018-09-05T09:21:18.702Z,99.90
2018-09-05T09:23:47.047Z,99.90
2018-09-05T09:26:15.352Z,99.90
2018-09-05T09:28:43.659Z,99.90
2018-09-05T09:31:11.967Z,99.90
2018-09-05T09:33:40.279Z,99.90
2018-09-05T09:36:08.567Z,99.90
2018-09-05T09:38:36.910Z,99.90
2018-09-05T09:41:05.211Z,99.90
2018-09-05T09:43:33.548Z,99.90
2018-09-05T09:46:01.875Z,99.90
2018-09-05T09:48:30.198Z,99.90
2018-09-05T09:50:58.523Z,99.90
2018-09-05T09:53:26.827Z,99.90
2018-09-05T09:55:55.133Z,99.90
2018-09-05T09:58:23.508Z,99.90
2018-09-05T10:00:57.210Z,99.90
2018-09-05T10:03:30.935Z,99.90
2018-09-05T10:06:04.651Z,99.90
2018-09-05T10:08:40.231Z,99.90
2018-09-05T10:11:14.811Z,99.90
2018-09-05T10:13:48.611Z,99.90
2018-09-05T10:16:22.404Z,99.90
2018-09-05T10:18:53.057Z,99.90
2018-09-05T10:21:21.631Z,99.90
2018-09-05T10:23:49.954Z,99.90
2018-09-05T10:26:18.244Z,99.90
2018-09-05T10:28:46.551Z,99.90
2018-09-05T10:31:14.849Z,99.90
2018-09-05T10:33:43.140Z,99.90
2018-09-05T10:36:11.485Z,99.90
2018-09-05T10:38:39.836Z,99.90
2018-09-05T10:41:08.143Z,99.90
2018-09-05T10:43:36.472Z,99.90
2018-09-05T10:46:04.777Z,99.90
2018-09-05T10:48:33.092Z,99.90
2018-09-05T10:51:01.387Z,99.90
2018-09-05T10:53:29.682Z,99.90
2018-09-05T10:55:57.999Z,99.90
2018-09-05T10:58:26.326Z,99.90
2018-09-05T11:00:54.633Z,99.90
2018-09-05T11:03:22.919Z,99.90
2018-09-05T11:05:51.221Z,99.90
2018-09-05T11:08:19.523Z,99.90
2018-09-05T11:10:47.859Z,99.90
2018-09-05T11:13:16.217Z,99.90
2018-09-05T11:15:44.509Z,99.90
2018-09-05T11:18:12.831Z,99.80
2018-09-05T11:20:41.124Z,99.90
2018-09-05T11:23:09.453Z,99.70
2018-09-05T11:25:37.804Z,99.80
2018-09-05T11:28:06.111Z,99.80
2018-09-05T11:30:34.420Z,99.40
2018-09-05T11:33:02.791Z,99.90
2018-09-05T11:35:31.092Z,99.50
2018-09-05T11:52:47.945Z,98.90
2018-09-05T11:55:16.252Z,97.80
2018-09-05T11:57:44.569Z,96.80
2018-09-05T12:00:13.087Z,96.20
2018-09-05T12:05:38.651Z,96.00
2018-09-05T12:08:06.967Z,96.50
2018-09-05T12:10:35.255Z,97.60
2018-09-05T12:13:03.575Z,98.00
2018-09-05T12:15:31.925Z,97.70
2018-09-05T12:18:00.248Z,96.70
2018-09-05T12:20:28.538Z,97.10
2018-09-05T12:22:56.919Z,96.80
2018-09-05T12:25:25.240Z,97.30
2018-09-05T12:27:53.644Z,97.40
2018-09-05T12:30:22.123Z,97.10
2018-09-05T12:32:50.479Z,97.50
2018-09-05T12:35:18.784Z,97.00
2018-09-05T12:37:47.148Z,96.10
2018-09-05T12:40:15.452Z,96.30
2018-09-05T12:42:43.768Z,96.50
2018-09-05T12:45:12.063Z,95.60
2018-09-05T12:47:40.384Z,95.70
2018-09-05T12:50:08.804Z,95.80
2018-09-05T12:52:37.098Z,95.30
2018-09-05T12:55:05.567Z,95.20
2018-09-05T12:57:33.871Z,94.60
2018-09-05T13:00:02.698Z,94.80
2018-09-05T13:02:31.344Z,94.50
2018-09-05T13:04:59.683Z,93.30
2018-09-05T13:07:28.020Z,93.10
2018-09-05T13:09:56.352Z,93.60
2018-09-05T13:12:24.729Z,95.20
2018-09-05T13:14:53.031Z,93.40
2018-09-05T13:17:21.331Z,92.40
2018-09-05T13:19:49.640Z,92.50
2018-09-05T13:22:17.947Z,92.40
2018-09-05T13:24:46.321Z,92.70
2018-09-05T13:27:14.616Z,92.80
2018-09-05T13:29:42.979Z,93.50
2018-09-05T13:32:11.277Z,92.50
2018-09-05T13:34:39.632Z,92.60
2018-09-05T13:37:07.955Z,93.30
2018-09-05T13:39:36.455Z,92.40
2018-09-05T13:42:05.070Z,92.50
2018-09-05T13:44:33.419Z,92.20
2018-09-05T13:47:01.744Z,91.40
2018-09-05T13:49:30.056Z,92.00
2018-09-05T13:52:04.165Z,92.10
2018-09-05T13:54:33.731Z,92.10
2018-09-05T13:57:02.081Z,92.10
2018-09-05T13:59:31.008Z,92.00
2018-09-05T14:01:59.328Z,92.00
2018-09-05T14:04:27.627Z,91.70
2018-09-05T14:06:55.964Z,92.00
2018-09-05T14:09:24.300Z,92.40
2018-09-05T14:11:52.659Z,91.50
2018-09-05T14:14:21.703Z,91.00
2018-09-05T14:16:50.084Z,90.90
2018-09-05T14:19:18.427Z,92.30
2018-09-05T14:21:46.728Z,91.60
2018-09-05T14:24:15.069Z,92.30
2018-09-05T14:26:43.385Z,91.90
2018-09-05T14:29:11.777Z,92.00
2018-09-05T14:31:40.205Z,91.90
2018-09-05T14:34:08.556Z,91.20
2018-09-05T14:36:36.891Z,90.90
2018-09-05T14:39:08.103Z,91.30
2018-09-05T14:41:36.415Z,90.60
2018-09-05T14:44:04.727Z,90.70
2018-09-05T14:46:33.101Z,90.60
2018-09-05T14:49:01.413Z,88.30
2018-09-05T14:51:29.733Z,88.30
2018-09-05T14:53:58.184Z,89.20
2018-09-05T14:56:26.674Z,86.10
2018-09-05T14:58:54.989Z,84.20
2018-09-05T15:01:23.311Z,84.80
2018-09-05T15:03:51.637Z,84.10
2018-09-05T15:06:20.090Z,86.40
2018-09-05T15:08:48.389Z,86.00
2018-09-05T15:11:16.677Z,83.80
2018-09-05T15:13:44.976Z,83.00
2018-09-05T15:16:13.405Z,83.70
2018-09-05T15:18:41.732Z,83.00
2018-09-05T15:21:10.076Z,83.00
2018-09-05T15:23:38.390Z,83.50
2018-09-05T15:26:06.746Z,84.70
2018-09-05T15:28:35.286Z,87.70
2018-09-05T15:31:03.607Z,90.50
2018-09-05T15:33:31.953Z,90.40
2018-09-05T15:36:00.236Z,90.00
2018-09-05T15:38:28.561Z,90.60
2018-09-05T15:40:56.875Z,90.70
2018-09-05T15:43:25.522Z,91.30
2018-09-05T15:45:54.031Z,91.00
2018-09-05T15:48:22.347Z,91.30
2018-09-05T15:50:50.692Z,91.00
2018-09-05T15:53:19.006Z,91.20
2018-09-05T15:55:47.304Z,91.10
2018-09-05T15:58:15.603Z,91.40
2018-09-05T16:00:43.903Z,91.10
2018-09-05T16:03:12.213Z,91.20
2018-09-05T16:05:42.278Z,90.90
2018-09-05T16:08:10.584Z,90.90
2018-09-05T16:10:39.368Z,91.10
2018-09-05T16:13:08.043Z,91.20
2018-09-05T16:15:36.477Z,91.60
2018-09-05T16:18:04.728Z,91.20
2018-09-05T16:20:33.591Z,91.50
2018-09-05T16:23:01.900Z,91.10
2018-09-05T16:25:30.360Z,91.40
2018-09-05T16:27:58.700Z,91.40
2018-09-05T16:30:27.068Z,92.50
2018-09-05T16:32:55.443Z,92.50
2018-09-05T16:35:23.855Z,93.00
2018-09-05T16:37:52.113Z,92.90
2018-09-05T16:40:20.439Z,93.00
2018-09-05T16:42:48.771Z,93.00
2018-09-05T16:45:17.460Z,93.20
2018-09-05T16:47:45.817Z,93.20
2018-09-05T16:50:14.146Z,93.10
2018-09-05T16:52:42.464Z,93.00
2018-09-05T16:55:10.840Z,93.80
2018-09-05T16:57:39.169Z,93.30
2018-09-05T17:00:07.697Z,93.40
2018-09-05T17:02:36.011Z,93.50
2018-09-05T17:05:04.368Z,93.60
2018-09-05T17:07:32.686Z,93.50
2018-09-05T17:10:01.176Z,93.90
2018-09-05T17:12:29.550Z,94.00
2018-09-05T17:14:58.018Z,94.10
2018-09-05T17:17:26.367Z,93.80
2018-09-05T17:19:54.997Z,94.40
2018-09-05T17:22:23.612Z,94.60
2018-09-05T17:24:51.963Z,94.40
2018-09-05T17:27:20.332Z,94.60
2018-09-05T17:29:48.691Z,94.60
2018-09-05T17:32:17.014Z,94.40
2018-09-05T17:34:45.383Z,94.40
2018-09-05T17:37:13.704Z,94.30
2018-09-05T17:39:42.236Z,94.30
2018-09-05T17:42:10.574Z,94.20
2018-09-05T17:44:38.904Z,94.10
2018-09-05T17:47:07.755Z,94.30
2018-09-05T17:49:36.076Z,94.40
2018-09-05T17:52:04.414Z,94.40
2018-09-05T17:54:32.741Z,94.70
2018-09-05T17:57:01.072Z,94.60
2018-09-05T17:59:29.403Z,94.40
2018-09-05T18:01:57.745Z,94.50
2018-09-05T18:04:26.083Z,94.60
2018-09-05T18:06:54.392Z,95.10
2018-09-05T18:09:22.731Z,94.60
2018-09-05T18:11:51.081Z,94.90
2018-09-05T18:14:19.434Z,94.60
2018-09-05T18:16:47.806Z,95.20
2018-09-05T18:19:16.106Z,94.90
2018-09-05T18:21:44.445Z,94.90
2018-09-05T18:24:12.874Z,94.80
2018-09-05T18:26:41.192Z,95.00
2018-09-05T18:29:09.590Z,95.10
2018-09-05T18:31:37.914Z,95.40
2018-09-05T18:34:06.255Z,95.30
2018-09-05T18:36:34.621Z,95.40
2018-09-05T18:39:02.953Z,95.30
2018-09-05T18:41:31.278Z,95.40
2018-09-05T18:43:59.662Z,95.60
2018-09-05T18:46:28.003Z,95.80
2018-09-05T18:48:56.349Z,96.00
2018-09-05T18:51:24.663Z,95.90
2018-09-05T18:53:53.116Z,95.80
2018-09-05T18:56:21.473Z,95.80
2018-09-05T18:58:49.809Z,95.80
2018-09-05T19:01:18.132Z,95.70
2018-09-05T19:03:46.449Z,95.80
2018-09-05T19:06:14.779Z,95.60
2018-09-05T19:08:43.155Z,95.70
2018-09-05T19:11:11.548Z,95.70
2018-09-05T19:13:39.873Z,95.80
2018-09-05T19:16:08.183Z,96.00
2018-09-05T19:18:36.479Z,96.60
2018-09-05T19:21:04.984Z,96.30
2018-09-05T19:23:33.920Z,96.50
2018-09-05T19:26:02.244Z,96.50
2018-09-05T19:28:30.578Z,96.70
2018-09-05T19:30:58.919Z,96.90
2018-09-05T19:33:27.211Z,96.90
2018-09-05T19:35:55.689Z,97.10
2018-09-05T19:38:24.009Z,97.30
2018-09-05T19:40:52.419Z,97.30
2018-09-05T19:43:20.731Z,97.40
2018-09-05T19:45:49.055Z,97.60
2018-09-05T19:48:17.979Z,97.80
2018-09-05T19:50:46.295Z,97.80
2018-09-05T19:53:14.649Z,98.10
2018-09-05T19:55:42.986Z,98.20
2018-09-05T19:58:11.281Z,98.20
2018-09-05T20:00:39.674Z,98.10
2018-09-05T20:03:08.012Z,98.20
2018-09-05T20:05:36.357Z,98.10
2018-09-05T20:08:04.676Z,98.00
2018-09-05T20:10:32.984Z,97.70
2018-09-05T20:13:01.488Z,97.70
2018-09-05T20:15:29.837Z,97.70
2018-09-05T20:17:58.139Z,97.80
2018-09-05T20:20:26.632Z,97.70
2018-09-05T20:22:54.930Z,97.60
2018-09-05T20:25:23.220Z,97.40
2018-09-05T20:27:51.534Z,97.20
2018-09-05T20:30:19.853Z,97.10
2018-09-05T20:32:48.154Z,96.90
2018-09-05T20:35:16.513Z,96.80
2018-09-05T20:37:44.842Z,96.80
2018-09-05T20:40:13.352Z,96.70
2018-09-05T20:42:41.669Z,96.60
2018-09-05T20:45:09.986Z,96.60
2018-09-05T20:47:38.408Z,96.60
2018-09-05T20:50:06.716Z,96.70
2018-09-05T20:52:35.136Z,97.10
2018-09-05T20:55:03.471Z,97.00
